Time;durP1;ratioP1;P1;durP2;ratioP2;P2;SDS_P1;SDS_P2;PMS_P1;PMS_P2;Temp;Humidity;BMP_temperature;BMP_pressure;BME280_temperature;BME280_humidity;BME280_pressure;Samples;Min_cycle;Max_cycle;Signal;HPM_P1;HPM_P2
2021/04/14 00:01:57;;;;;;;26.95;17.30;;;;;;;-145.19;100.00;59999.88;5029715;28;20050;-64
2021/04/14 00:04:25;;;;;;;24.48;16.35;;;;;;;-145.19;100.00;59999.88;5028916;28;20473;-63
2021/04/14 00:06:59;;;;;;;27.92;18.80;;;;;;;-145.19;100.00;59999.88;5027692;28;20136;-63
2021/04/14 00:09:27;;;;;;;17.52;12.48;;;;;;;-145.19;100.00;59999.88;5044791;28;20052;-64
2021/04/14 00:11:59;;;;;;;15.98;9.77;;;;;;;-145.19;100.00;59999.88;5025143;28;20045;-64
2021/04/14 00:14:26;;;;;;;15.80;11.65;;;;;;;-145.19;100.00;59999.88;5028827;28;20040;-64
2021/04/14 00:16:53;;;;;;;13.23;9.15;;;;;;;-145.19;100.00;59999.88;5026801;28;20533;-64
2021/04/14 00:19:19;;;;;;;21.13;11.43;;;;;;;-145.19;100.00;59999.88;5028189;28;20041;-66
2021/04/14 00:21:47;;;;;;;10.63;8.38;;;;;;;-145.19;100.00;59999.88;5029478;28;20104;-64
2021/04/14 00:24:14;;;;;;;11.48;8.55;;;;;;;-145.19;100.00;59999.88;5025093;28;20868;-64
2021/04/14 00:26:44;;;;;;;12.98;9.93;;;;;;;-145.19;100.00;59999.88;5027431;28;20041;-65
2021/04/14 00:29:11;;;;;;;13.30;10.38;;;;;;;-145.19;100.00;59999.88;5027346;28;20430;-64
2021/04/14 00:31:38;;;;;;;16.13;10.70;;;;;;;-145.19;100.00;59999.88;5027847;28;20402;-66
2021/04/14 00:34:18;;;;;;;15.77;9.40;;;;;;;-145.19;100.00;59999.88;5028970;28;20042;-64
2021/04/14 00:36:46;;;;;;;11.40;8.45;;;;;;;-145.19;100.00;59999.88;5026871;28;20128;-65
2021/04/14 00:39:22;;;;;;;15.25;11.77;;;;;;;-145.19;100.00;59999.88;5027562;28;20057;-65
2021/04/14 00:41:49;;;;;;;13.00;10.10;;;;;;;-145.19;100.00;59999.88;5029323;28;20038;-64
2021/04/14 00:44:17;;;;;;;17.95;10.85;;;;;;;-145.19;100.00;59999.88;5027858;28;20105;-65
2021/04/14 00:46:43;;;;;;;14.02;9.32;;;;;;;-145.19;100.00;59999.88;5027570;28;20113;-65
2021/04/14 00:49:12;;;;;;;14.43;10.40;;;;;;;-145.19;100.00;59999.88;5028073;28;20041;-64
2021/04/14 00:51:41;;;;;;;12.43;7.95;;;;;;;-145.19;100.00;59999.88;5029429;28;20046;-64
2021/04/14 00:54:08;;;;;;;14.40;9.82;;;;;;;-145.19;100.00;59999.88;5026781;28;20038;-65
2021/04/14 00:56:37;;;;;;;16.23;10.32;;;;;;;-145.19;100.00;59999.88;5042558;28;20048;-65
2021/04/14 00:59:04;;;;;;;16.25;10.18;;;;;;;-145.19;100.00;59999.88;5026804;28;20072;-64
2021/04/14 01:01:30;;;;;;;14.23;9.40;;;;;;;-145.19;100.00;59999.88;5027053;28;20121;-64
2021/04/14 01:03:56;;;;;;;13.25;9.90;;;;;;;-145.19;100.00;59999.88;5025313;28;20077;-64
2021/04/14 01:06:26;;;;;;;13.38;9.18;;;;;;;-145.19;100.00;59999.88;5027907;28;20128;-64
2021/04/14 01:08:53;;;;;;;13.80;8.60;;;;;;;-145.19;100.00;59999.88;5029088;28;20071;-64
2021/04/14 01:11:24;;;;;;;13.00;9.68;;;;;;;-145.19;100.00;59999.88;5013617;28;20606;-64
2021/04/14 01:13:51;;;;;;;15.57;10.85;;;;;;;-145.19;100.00;59999.88;5029122;28;20512;-64
2021/04/14 01:16:17;;;;;;;13.57;10.23;;;;;;;-145.19;100.00;59999.88;5027582;28;20041;-65
2021/04/14 01:18:43;;;;;;;14.45;9.05;;;;;;;-145.19;100.00;59999.88;5027307;28;20402;-64
2021/04/14 01:21:23;;;;;;;16.75;10.48;;;;;;;-145.19;100.00;59999.88;5029972;28;20056;-64
2021/04/14 01:23:49;;;;;;;11.65;8.60;;;;;;;-145.19;100.00;59999.88;5028146;28;20049;-64
2021/04/14 01:26:16;;;;;;;12.57;8.88;;;;;;;-145.19;100.00;59999.88;5024602;28;20397;-64
2021/04/14 01:28:47;;;;;;;12.20;8.25;;;;;;;-145.19;100.00;59999.88;5029628;28;20041;-64
2021/04/14 01:31:32;;;;;;;11.27;7.97;;;;;;;-145.19;100.00;59999.88;5029358;28;20049;-65
2021/04/14 01:34:05;;;;;;;12.30;7.35;;;;;;;-145.19;100.00;59999.88;5025490;28;20080;-66
2021/04/14 01:36:32;;;;;;;14.38;9.85;;;;;;;-145.19;100.00;59999.88;5030347;28;20654;-64
2021/04/14 01:38:59;;;;;;;13.93;9.15;;;;;;;-145.19;100.00;59999.88;5032248;28;20087;-64
2021/04/14 01:41:26;;;;;;;13.40;9.02;;;;;;;-145.19;100.00;59999.88;5029390;28;20045;-64
2021/04/14 01:43:52;;;;;;;14.57;8.95;;;;;;;-145.19;100.00;59999.88;5032104;28;20482;-64
2021/04/14 01:46:18;;;;;;;13.23;8.82;;;;;;;-145.19;100.00;59999.88;5025410;28;20114;-65
2021/04/14 01:48:45;;;;;;;13.18;8.13;;;;;;;-145.19;100.00;59999.88;5031351;28;20041;-64
2021/04/14 01:51:13;;;;;;;12.68;9.40;;;;;;;-145.19;100.00;59999.88;5031507;28;20453;-64
2021/04/14 01:53:40;;;;;;;12.60;8.65;;;;;;;-145.19;100.00;59999.88;5029844;28;20061;-65
2021/04/14 01:56:06;;;;;;;10.35;7.47;;;;;;;-145.19;100.00;59999.88;5025655;28;20544;-64
2021/04/14 01:58:33;;;;;;;10.48;7.40;;;;;;;-145.19;100.00;59999.88;5030491;28;20374;-64
2021/04/14 02:01:09;;;;;;;10.85;7.03;;;;;;;-145.19;100.00;59999.88;5030113;28;20087;-64
2021/04/14 02:03:39;;;;;;;10.10;6.25;;;;;;;-145.19;100.00;59999.88;5031783;28;20073;-64
2021/04/14 02:06:07;;;;;;;9.43;5.55;;;;;;;-145.19;100.00;59999.88;5031773;28;20049;-65
2021/04/14 02:08:33;;;;;;;12.18;7.43;;;;;;;-145.19;100.00;59999.88;5033268;28;20049;-64
2021/04/14 02:11:00;;;;;;;12.15;8.23;;;;;;;-145.19;100.00;59999.88;5028960;28;20068;-64
2021/04/14 02:13:29;;;;;;;11.15;7.88;;;;;;;-145.19;100.00;59999.88;5040863;28;20041;-65
2021/04/14 02:15:58;;;;;;;11.50;7.57;;;;;;;-145.19;100.00;59999.88;5029111;28;20050;-65
2021/04/14 02:18:25;;;;;;;14.40;7.38;;;;;;;-145.19;100.00;59999.88;5026317;28;20038;-65
2021/04/14 02:20:51;;;;;;;13.35;7.97;;;;;;;-145.19;100.00;59999.88;5031101;28;20116;-64
2021/04/14 02:23:26;;;;;;;11.48;8.05;;;;;;;-145.19;100.00;59999.88;5029454;28;20552;-65
2021/04/14 02:25:58;;;;;;;11.45;7.97;;;;;;;-145.19;100.00;59999.88;5021874;28;20045;-65
2021/04/14 02:28:25;;;;;;;15.32;9.27;;;;;;;-145.19;100.00;59999.88;5029712;28;20060;-65
2021/04/14 02:30:51;;;;;;;18.00;10.27;;;;;;;-145.19;100.00;59999.88;5027970;28;20128;-65
2021/04/14 02:33:18;;;;;;;15.18;9.90;;;;;;;-145.19;100.00;59999.88;5029536;28;20033;-64
2021/04/14 02:35:45;;;;;;;15.13;9.27;;;;;;;-145.19;100.00;59999.88;5026912;28;20037;-64
2021/04/14 02:38:12;;;;;;;16.42;10.60;;;;;;;-145.19;100.00;59999.88;5029897;28;20033;-65
2021/04/14 02:40:39;;;;;;;17.20;11.38;;;;;;;-145.19;100.00;59999.88;5027351;28;20073;-64
2021/04/14 02:43:05;;;;;;;19.38;10.75;;;;;;;-145.19;100.00;59999.88;5024671;28;20050;-64
2021/04/14 02:45:35;;;;;;;20.85;12.23;;;;;;;-145.19;100.00;59999.88;5028268;28;20401;-64
2021/04/14 02:48:03;;;;;;;15.20;10.50;;;;;;;-145.19;100.00;59999.88;5027282;28;20068;-64
2021/04/14 02:50:29;;;;;;;19.08;11.80;;;;;;;-145.19;100.00;59999.88;5029871;28;20607;-64
2021/04/14 02:52:57;;;;;;;17.02;12.07;;;;;;;-145.19;100.00;59999.88;5029869;28;20473;-64
2021/04/14 02:55:28;;;;;;;16.75;11.10;;;;;;;-145.19;100.00;59999.88;5027467;28;20096;-63
2021/04/14 02:57:55;;;;;;;;;;;;;;;-145.19;100.00;59999.88;5026266;28;20056;-65
2021/04/14 03:00:23;;;;;;;19.98;11.20;;;;;;;-145.19;100.00;59999.88;5030001;28;19971;-65
2021/04/14 03:02:49;;;;;;;15.23;11.43;;;;;;;-145.19;100.00;59999.88;5027620;28;20120;-64
2021/04/14 03:05:20;;;;;;;15.93;11.18;;;;;;;-145.19;100.00;59999.88;5029137;28;20366;-64
2021/04/14 03:07:46;;;;;;;15.57;11.50;;;;;;;-145.19;100.00;59999.88;5025626;28;20084;-64
2021/04/14 03:10:13;;;;;;;18.15;12.60;;;;;;;-145.19;100.00;59999.88;5028553;28;20752;-64
2021/04/14 03:12:40;;;;;;;16.42;11.32;;;;;;;-145.19;100.00;59999.88;5026396;28;20047;-64
2021/04/14 03:15:09;;;;;;;16.60;12.35;;;;;;;-145.19;100.00;59999.88;5027720;28;20050;-64
2021/04/14 03:17:35;;;;;;;18.20;11.98;;;;;;;-145.19;100.00;59999.88;5027248;28;20140;-64
2021/04/14 03:20:04;;;;;;;17.50;12.68;;;;;;;-145.19;100.00;59999.88;5031221;28;20049;-64
2021/04/14 03:22:33;;;;;;;18.38;12.82;;;;;;;-145.19;100.00;59999.88;5024576;28;20043;-63
2021/04/14 03:25:00;;;;;;;17.40;13.13;;;;;;;-145.19;100.00;59999.88;5031466;28;20045;-64
2021/04/14 03:27:26;;;;;;;19.20;11.97;;;;;;;-145.19;100.00;59999.88;5029490;28;20041;-64
2021/04/14 03:29:53;;;;;;;21.73;15.10;;;;;;;-145.19;100.00;59999.88;5029155;28;20037;-66
2021/04/14 03:32:19;;;;;;;17.13;12.27;;;;;;;-145.19;100.00;59999.88;5029309;28;20132;-64
2021/04/14 03:34:45;;;;;;;19.90;12.40;;;;;;;-145.19;100.00;59999.88;5028938;28;20045;-65
2021/04/14 03:37:11;;;;;;;22.50;12.77;;;;;;;-145.19;100.00;59999.88;5030473;28;20060;-64
2021/04/14 03:39:37;;;;;;;17.33;12.63;;;;;;;-145.19;100.00;59999.88;5030869;28;20061;-64
2021/04/14 03:42:04;;;;;;;17.73;12.60;;;;;;;-145.19;100.00;59999.88;5029732;28;20045;-65
2021/04/14 03:44:35;;;;;;;21.90;14.25;;;;;;;-145.19;100.00;59999.88;5031900;28;20045;-65
2021/04/14 03:47:03;;;;;;;17.80;12.38;;;;;;;-145.19;100.00;59999.88;5025893;28;20079;-64
2021/04/14 03:49:30;;;;;;;;;;;;;;;-145.19;100.00;59999.88;5025210;28;20478;-65
2021/04/14 03:51:57;;;;;;;22.58;14.20;;;;;;;-145.19;100.00;59999.88;5028422;28;19920;-66
2021/04/14 03:54:23;;;;;;;22.27;14.13;;;;;;;-145.19;100.00;59999.88;5028816;28;20164;-65
2021/04/14 03:56:50;;;;;;;20.88;13.93;;;;;;;-145.19;100.00;59999.88;5028936;28;20395;-64
2021/04/14 03:59:17;;;;;;;17.90;13.13;;;;;;;-145.19;100.00;59999.88;5030110;28;20483;-65
2021/04/14 04:01:43;;;;;;;21.33;13.75;;;;;;;-145.19;100.00;59999.88;5028324;28;21145;-64
2021/04/14 04:04:11;;;;;;;22.48;14.23;;;;;;;-145.19;100.00;59999.88;5026160;28;20045;-66
2021/04/14 04:06:37;;;;;;;27.63;16.60;;;;;;;-145.19;100.00;59999.88;5031125;28;20045;-64
2021/04/14 04:09:05;;;;;;;46.70;26.63;;;;;;;-145.19;100.00;59999.88;5026387;28;20290;-64
2021/04/14 04:11:31;;;;;;;20.60;14.63;;;;;;;-145.19;100.00;59999.88;5027060;28;20491;-65
2021/04/14 04:13:59;;;;;;;32.88;20.65;;;;;;;-145.19;100.00;59999.88;5029392;28;20053;-65
2021/04/14 04:16:26;;;;;;;23.13;14.32;;;;;;;-145.19;100.00;59999.88;5029845;28;20413;-64
2021/04/14 04:18:53;;;;;;;22.42;16.38;;;;;;;-145.19;100.00;59999.88;5026231;28;20042;-65
2021/04/14 04:21:20;;;;;;;19.02;13.10;;;;;;;-145.19;100.00;59999.88;5013495;28;20470;-64
2021/04/14 04:23:47;;;;;;;19.48;12.02;;;;;;;-145.19;100.00;59999.88;5030510;28;20041;-64
2021/04/14 04:26:13;;;;;;;16.88;12.35;;;;;;;-145.19;100.00;59999.88;5029032;28;20394;-64
2021/04/14 04:28:40;;;;;;;21.80;14.95;;;;;;;-145.19;100.00;59999.88;5030008;28;20049;-64
2021/04/14 04:31:08;;;;;;;21.58;12.55;;;;;;;-145.19;100.00;59999.88;5029175;28;20136;-64
2021/04/14 04:33:34;;;;;;;17.60;12.27;;;;;;;-145.19;100.00;59999.88;5026939;28;20064;-64
2021/04/14 04:36:01;;;;;;;16.88;12.50;;;;;;;-145.19;100.00;59999.88;5025679;28;20072;-64
2021/04/14 04:38:27;;;;;;;12.15;8.15;;;;;;;-145.19;100.00;59999.88;5025432;28;20419;-64
2021/04/14 04:40:54;;;;;;;18.02;12.00;;;;;;;-145.19;100.00;59999.88;5026202;28;20042;-65
2021/04/14 04:43:23;;;;;;;21.25;12.52;;;;;;;-145.19;100.00;59999.88;5021668;28;20056;-65
2021/04/14 04:45:52;;;;;;;25.00;14.60;;;;;;;-145.19;100.00;59999.88;5028276;28;20116;-66
2021/04/14 04:48:19;;;;;;;12.98;9.05;;;;;;;-145.19;100.00;59999.88;5024402;28;20084;-65
2021/04/14 04:50:45;;;;;;;16.02;8.05;;;;;;;-145.19;100.00;59999.88;5025136;28;20095;-66
2021/04/14 04:53:23;;;;;;;15.18;8.80;;;;;;;-145.19;100.00;59999.88;5022063;28;20651;-66
2021/04/14 04:55:50;;;;;;;14.85;9.07;;;;;;;-145.19;100.00;59999.88;5023410;28;20128;-66
2021/04/14 04:58:17;;;;;;;14.82;10.25;;;;;;;-145.19;100.00;59999.88;5024679;28;20041;-67
2021/04/14 05:00:43;;;;;;;15.40;9.23;;;;;;;-145.19;100.00;59999.88;5028763;28;20596;-66
2021/04/14 05:03:11;;;;;;;14.65;7.95;;;;;;;-145.19;100.00;59999.88;5027704;28;20053;-64
2021/04/14 05:05:38;;;;;;;19.48;11.40;;;;;;;-145.19;100.00;59999.88;5027312;28;20541;-64
2021/04/14 05:08:06;;;;;;;12.90;7.60;;;;;;;-145.19;100.00;59999.88;5042372;28;20042;-69
2021/04/14 05:10:33;;;;;;;49.72;10.00;;;;;;;-145.19;100.00;59999.88;5030283;28;20053;-68
2021/04/14 05:12:59;;;;;;;12.07;7.07;;;;;;;-145.19;100.00;59999.88;5030915;28;20060;-68
2021/04/14 05:15:30;;;;;;;13.35;7.32;;;;;;;-145.19;100.00;59999.88;5023511;28;20565;-67
2021/04/14 05:17:56;;;;;;;16.10;8.48;;;;;;;-145.19;100.00;59999.88;5029805;28;20046;-66
2021/04/14 05:20:23;;;;;;;12.20;7.13;;;;;;;-145.19;100.00;59999.88;5031587;28;20030;-67
2021/04/14 05:22:49;;;;;;;23.00;11.60;;;;;;;-145.19;100.00;59999.88;5030439;28;20038;-67
2021/04/14 05:25:20;;;;;;;37.72;18.60;;;;;;;-145.19;100.00;59999.88;5027477;28;20050;-65
2021/04/14 05:27:47;;;;;;;8.50;5.20;;;;;;;-145.19;100.00;59999.88;5028280;28;20124;-66
2021/04/14 05:30:14;;;;;;;10.07;4.45;;;;;;;-145.19;100.00;59999.88;5025044;28;20069;-66
2021/04/14 05:32:42;;;;;;;10.32;5.82;;;;;;;-145.19;100.00;59999.88;5031257;28;20120;-67
2021/04/14 05:35:08;;;;;;;10.77;5.30;;;;;;;-145.19;100.00;59999.88;5028002;28;20046;-67
2021/04/14 05:37:35;;;;;;;9.13;5.38;;;;;;;-145.19;100.00;59999.88;5029568;28;20076;-67
2021/04/14 05:40:01;;;;;;;11.82;5.50;;;;;;;-145.19;100.00;59999.88;5028709;28;20116;-66
2021/04/14 05:42:27;;;;;;;14.02;5.35;;;;;;;-145.19;100.00;59999.88;5027617;28;20537;-66
2021/04/14 05:44:53;;;;;;;12.88;6.10;;;;;;;-145.19;100.00;59999.88;5026608;28;20058;-66
2021/04/14 05:47:19;;;;;;;12.30;6.43;;;;;;;-145.19;100.00;59999.88;5030554;28;20089;-66
2021/04/14 05:49:46;;;;;;;13.18;6.95;;;;;;;-145.19;100.00;59999.88;5024167;28;20521;-66
2021/04/14 05:52:12;;;;;;;11.18;6.72;;;;;;;-145.19;100.00;59999.88;5030029;28;20116;-67
2021/04/14 05:54:38;;;;;;;8.95;5.55;;;;;;;-145.19;100.00;59999.88;5029353;28;20140;-67
2021/04/14 05:57:04;;;;;;;11.00;5.57;;;;;;;-145.19;100.00;59999.88;5025037;28;20081;-67
2021/04/14 05:59:30;;;;;;;11.38;5.70;;;;;;;-145.19;100.00;59999.88;5029632;28;20052;-66
2021/04/14 06:01:57;;;;;;;12.95;6.40;;;;;;;-145.19;100.00;59999.88;5030576;28;20069;-66
2021/04/14 06:04:23;;;;;;;10.45;5.40;;;;;;;-145.19;100.00;59999.88;5029640;28;20551;-66
2021/04/14 06:06:49;;;;;;;10.85;5.60;;;;;;;-145.19;100.00;59999.88;5030971;28;20073;-66
2021/04/14 06:09:15;;;;;;;10.52;5.68;;;;;;;-145.19;100.00;59999.88;5028602;28;21637;-66
2021/04/14 06:11:41;;;;;;;10.63;5.78;;;;;;;-145.19;100.00;59999.88;5030544;28;20041;-66
2021/04/14 06:14:10;;;;;;;9.18;5.57;;;;;;;-145.19;100.00;59999.88;5029525;28;20048;-66
2021/04/14 06:16:36;;;;;;;9.65;5.28;;;;;;;-145.19;100.00;59999.88;5027912;28;20133;-66
2021/04/14 06:19:04;;;;;;;12.18;5.65;;;;;;;-145.19;100.00;59999.88;5030383;28;20559;-66
2021/04/14 06:21:30;;;;;;;10.30;5.40;;;;;;;-145.19;100.00;59999.88;5028378;28;20049;-67
2021/04/14 06:24:01;;;;;;;8.85;5.90;;;;;;;-145.19;100.00;59999.88;5040813;28;20286;-66
2021/04/14 06:26:40;;;;;;;10.00;5.72;;;;;;;-145.19;100.00;59999.88;5026400;28;20569;-66
2021/04/14 06:29:07;;;;;;;9.50;5.45;;;;;;;-145.19;100.00;59999.88;5022288;28;20042;-67
2021/04/14 06:31:41;;;;;;;11.07;6.47;;;;;;;-145.19;100.00;59999.88;5024297;28;20062;-68
2021/04/14 06:34:19;;;;;;;9.93;5.88;;;;;;;-145.19;100.00;59999.88;5019836;28;20079;-66
2021/04/14 06:36:50;;;;;;;10.60;5.63;;;;;;;-145.19;100.00;59999.88;5026040;28;20377;-66
2021/04/14 06:39:21;;;;;;;8.95;6.22;;;;;;;-145.19;100.00;59999.88;5026961;28;20038;-68
2021/04/14 06:44:41;;;;;;;14.27;7.75;;;;;;;-145.19;100.00;59999.88;5028042;28;20107;-66
2021/04/14 06:47:16;;;;;;;7.63;5.05;;;;;;;-145.19;100.00;59999.88;5025341;28;20052;-67
2021/04/14 06:49:50;;;;;;;10.05;5.57;;;;;;;-145.19;100.00;59999.88;5010167;28;20431;-66
2021/04/14 06:52:25;;;;;;;12.20;6.88;;;;;;;-145.19;100.00;59999.88;5031197;28;20045;-66
2021/04/14 06:54:58;;;;;;;13.40;7.45;;;;;;;-145.19;100.00;59999.88;5041817;28;20037;-67
2021/04/14 06:57:32;;;;;;;11.18;5.32;;;;;;;-145.19;100.00;59999.88;5029145;28;20041;-67
2021/04/14 07:00:31;;;;;;;8.93;6.22;;;;;;;-145.19;100.00;59999.88;5031359;28;20128;-67
2021/04/14 07:03:08;;;;;;;10.20;5.22;;;;;;;-145.19;100.00;59999.88;5030967;28;20125;-66
2021/04/14 07:05:38;;;;;;;11.00;6.82;;;;;;;-145.19;100.00;59999.88;5029990;28;20536;-68
2021/04/14 07:08:16;;;;;;;10.43;4.80;;;;;;;-145.19;100.00;59999.88;5027452;28;20084;-66
2021/04/14 07:10:43;;;;;;;9.75;4.53;;;;;;;-145.19;100.00;59999.88;5030041;28;20124;-66
2021/04/14 07:13:12;;;;;;;9.33;4.67;;;;;;;-145.19;100.00;59999.88;5027322;28;20092;-70
2021/04/14 07:15:39;;;;;;;9.25;4.55;;;;;;;-145.19;100.00;59999.88;5028175;28;20045;-64
2021/04/14 07:18:23;;;;;;;9.65;4.72;;;;;;;-145.19;100.00;59999.88;5026417;28;20049;-66
2021/04/14 07:21:12;;;;;;;8.32;4.93;;;;;;;-145.19;100.00;59999.88;5021757;28;20056;-65
2021/04/14 07:24:12;;;;;;;9.50;5.50;;;;;;;-145.19;100.00;59999.88;5026109;28;20041;-65
2021/04/14 07:26:58;;;;;;;9.35;4.82;;;;;;;-145.19;100.00;59999.88;5027265;28;20100;-65
2021/04/14 07:29:33;;;;;;;9.07;5.22;;;;;;;-145.19;100.00;59999.88;5022778;28;20385;-66
2021/04/14 07:32:12;;;;;;;7.60;4.43;;;;;;;-145.19;100.00;59999.88;5025661;28;20049;-65
2021/04/14 07:35:09;;;;;;;8.57;4.60;;;;;;;-145.19;100.00;59999.88;5043297;28;20409;-65
2021/04/14 07:37:51;;;;;;;13.60;5.90;;;;;;;-145.19;100.00;59999.88;5025653;28;20124;-65
2021/04/14 07:40:36;;;;;;;10.65;5.50;;;;;;;-145.19;100.00;59999.88;5025621;28;20159;-66
2021/04/14 07:43:27;;;;;;;7.55;4.07;;;;;;;-145.19;100.00;59999.88;5025247;28;20501;-68
2021/04/14 07:45:53;;;;;;;7.35;4.40;;;;;;;-145.19;100.00;59999.88;5028841;28;20128;-66
2021/04/14 07:48:27;;;;;;;7.82;4.88;;;;;;;-145.19;100.00;59999.88;5022549;28;20050;-66
2021/04/14 07:50:59;;;;;;;11.02;5.30;;;;;;;-145.19;100.00;59999.88;5028012;28;20037;-66
2021/04/14 07:53:30;;;;;;;9.45;5.00;;;;;;;-145.19;100.00;59999.88;5025074;28;20521;-66
2021/04/14 07:56:22;;;;;;;11.23;5.03;;;;;;;-145.19;100.00;59999.88;5021268;28;20103;-66
2021/04/14 07:59:08;;;;;;;8.65;4.88;;;;;;;-145.19;100.00;59999.88;5022843;28;20053;-66
2021/04/14 08:01:37;;;;;;;13.40;5.25;;;;;;;-145.19;100.00;59999.88;5023059;28;20056;-66
2021/04/14 08:04:15;;;;;;;8.65;5.18;;;;;;;-145.19;100.00;59999.88;5022345;28;20567;-66
2021/04/14 08:06:42;;;;;;;7.38;5.00;;;;;;;-145.19;100.00;59999.88;5023111;28;20053;-66
2021/04/14 08:09:15;;;;;;;9.93;5.68;;;;;;;-145.19;100.00;59999.88;5024903;28;20168;-65
2021/04/14 08:11:42;;;;;;;9.77;5.30;;;;;;;-145.19;100.00;59999.88;5022449;28;20076;-66
2021/04/14 08:14:36;;;;;;;8.35;5.32;;;;;;;-145.19;100.00;59999.88;5023435;28;20041;-65
2021/04/14 08:17:16;;;;;;;8.00;4.80;;;;;;;-145.19;100.00;59999.88;5028132;28;20077;-67
2021/04/14 08:19:42;;;;;;;9.65;5.18;;;;;;;-145.19;100.00;59999.88;5025014;28;20064;-65
2021/04/14 08:22:11;;;;;;;8.82;5.07;;;;;;;-145.19;100.00;59999.88;5024959;28;20151;-65
2021/04/14 08:24:49;;;;;;;11.40;5.57;;;;;;;-145.19;100.00;59999.88;5027366;28;20453;-65
2021/04/14 08:27:23;;;;;;;12.38;5.88;;;;;;;-145.19;100.00;59999.88;5021563;28;20052;-66
2021/04/14 08:30:01;;;;;;;9.68;4.90;;;;;;;-145.19;100.00;59999.88;5027146;28;20034;-65
2021/04/14 08:32:33;;;;;;;7.75;5.25;;;;;;;-145.19;100.00;59999.88;5027563;28;20090;-66
2021/04/14 08:35:02;;;;;;;12.68;5.53;;;;;;;-145.19;100.00;59999.88;5025356;28;20045;-65
2021/04/14 08:37:30;;;;;;;11.32;4.95;;;;;;;-145.19;100.00;59999.88;5022568;28;20116;-65
2021/04/14 08:39:59;;;;;;;10.68;5.75;;;;;;;-145.19;100.00;59999.88;5022788;28;20084;-66
2021/04/14 08:42:32;;;;;;;7.10;3.95;;;;;;;-145.19;100.00;59999.88;5022088;28;20053;-66
2021/04/14 08:45:05;;;;;;;10.50;5.65;;;;;;;-145.19;100.00;59999.88;5025728;28;20064;-65
2021/04/14 08:47:35;;;;;;;10.45;5.18;;;;;;;-145.19;100.00;59999.88;5026220;28;20584;-65
2021/04/14 08:50:12;;;;;;;6.45;4.40;;;;;;;-145.19;100.00;59999.88;5030881;28;20044;-66
2021/04/14 08:52:43;;;;;;;6.57;4.85;;;;;;;-145.19;100.00;59999.88;5028542;28;20046;-65
2021/04/14 08:55:10;;;;;;;10.50;4.40;;;;;;;-145.19;100.00;59999.88;5031727;28;20048;-66
2021/04/14 08:57:39;;;;;;;7.25;3.78;;;;;;;-145.19;100.00;59999.88;5031133;28;20045;-66
2021/04/14 09:00:08;;;;;;;8.45;4.60;;;;;;;-145.19;100.00;59999.88;5031222;28;20095;-66
2021/04/14 09:02:35;;;;;;;6.57;3.67;;;;;;;-145.19;100.00;59999.88;5031602;28;20042;-66
2021/04/14 09:05:08;;;;;;;8.07;4.43;;;;;;;-145.19;100.00;59999.88;5029418;28;20050;-66
2021/04/14 09:07:37;;;;;;;8.75;4.90;;;;;;;-145.19;100.00;59999.88;5029828;28;20448;-65
2021/04/14 09:10:10;;;;;;;8.18;4.05;;;;;;;-145.19;100.00;59999.88;5030683;28;20139;-65
2021/04/14 09:12:39;;;;;;;7.40;4.03;;;;;;;-145.19;100.00;59999.88;5032079;28;20046;-65
2021/04/14 09:15:07;;;;;;;7.28;3.55;;;;;;;-145.19;100.00;59999.88;5025365;28;20045;-66
2021/04/14 09:17:35;;;;;;;6.45;2.80;;;;;;;-145.19;100.00;59999.88;5032954;28;20081;-66
2021/04/14 09:20:21;;;;;;;8.80;3.45;;;;;;;-145.19;100.00;59999.88;5029843;28;20048;-66
2021/04/14 09:22:59;;;;;;;6.40;3.10;;;;;;;-145.19;100.00;59999.88;5026031;28;20055;-66
2021/04/14 09:25:40;;;;;;;6.50;3.20;;;;;;;-145.19;100.00;59999.88;5031488;28;20140;-65
2021/04/14 09:28:07;;;;;;;6.53;3.20;;;;;;;-145.19;100.00;59999.88;5032451;28;20120;-65
2021/04/14 09:30:51;;;;;;;8.18;3.70;;;;;;;-145.19;100.00;59999.88;5027896;28;20042;-65
2021/04/14 09:33:21;;;;;;;6.57;3.00;;;;;;;-145.19;100.00;59999.88;5029525;28;20069;-65
2021/04/14 09:35:50;;;;;;;6.22;3.15;;;;;;;-145.19;100.00;59999.88;5028888;28;20069;-67
2021/04/14 09:38:24;;;;;;;7.32;3.75;;;;;;;-145.19;100.00;59999.88;5031835;28;20084;-65
2021/04/14 09:40:52;;;;;;;5.78;2.90;;;;;;;-145.19;100.00;59999.88;5032829;28;20092;-66
2021/04/14 09:43:31;;;;;;;5.57;2.67;;;;;;;-145.19;100.00;59999.88;5027767;28;20048;-66
2021/04/14 09:46:07;;;;;;;5.95;4.40;;;;;;;-145.19;100.00;59999.88;5031502;28;20038;-66
2021/04/14 09:48:52;;;;;;;5.75;3.50;;;;;;;-145.19;100.00;59999.88;5029137;28;20103;-66
2021/04/14 09:51:29;;;;;;;5.30;3.45;;;;;;;-145.19;100.00;59999.88;5040485;28;20073;-66
2021/04/14 09:53:58;;;;;;;12.70;11.32;;;;;;;-145.19;100.00;59999.88;5029816;28;20429;-66
2021/04/14 09:56:30;;;;;;;6.75;3.40;;;;;;;-145.19;100.00;59999.88;5031590;28;20047;-67
2021/04/14 09:59:08;;;;;;;10.40;2.35;;;;;;;-145.19;100.00;59999.88;5032838;28;20120;-66
2021/04/14 10:01:38;;;;;;;5.40;1.30;;;;;;;-145.19;100.00;59999.88;5032555;28;20042;-66
2021/04/14 10:04:08;;;;;;;21.42;12.45;;;;;;;-145.19;100.00;59999.88;5024535;28;20489;-66
2021/04/14 10:06:35;;;;;;;39.30;19.27;;;;;;;-145.19;100.00;59999.88;5029915;28;20046;-65
2021/04/14 10:09:06;;;;;;;19.02;10.68;;;;;;;-145.19;100.00;59999.88;5029624;28;20503;-66
2021/04/14 10:11:38;;;;;;;5.30;3.10;;;;;;;-145.19;100.00;59999.88;5033114;28;20095;-65
2021/04/14 10:14:16;;;;;;;11.98;1.50;;;;;;;-145.19;100.00;59999.88;5028795;28;20037;-66
2021/04/14 10:16:43;;;;;;;;;;;;;;;-145.19;100.00;59999.88;5030017;28;20477;-66
2021/04/14 10:19:14;;;;;;;14.27;10.00;;;;;;;-145.19;100.00;59999.88;5031288;28;20365;-66
2021/04/14 10:21:42;;;;;;;2.00;0.90;;;;;;;-145.19;100.00;59999.88;5031515;28;20045;-65
2021/04/14 10:24:11;;;;;;;;;;;;;;;-145.19;100.00;59999.88;5030739;28;20056;-66
2021/04/14 10:26:56;;;;;;;3.08;1.33;;;;;;;-145.19;100.00;59999.88;5046416;28;19960;-66
2021/04/14 10:29:54;;;;;;;4.93;1.50;;;;;;;-145.19;100.00;59999.88;5028719;28;20063;-66
2021/04/14 10:32:24;;;;;;;5.85;4.65;;;;;;;-145.19;100.00;59999.88;5002820;28;20060;-68
2021/04/14 10:34:51;;;;;;;3.90;2.70;;;;;;;-145.19;100.00;59999.88;5032409;28;20107;-58
2021/04/14 10:37:24;;;;;;;2.10;0.98;;;;;;;-145.19;100.00;59999.88;5026085;28;20462;-60
2021/04/14 10:39:52;;;;;;;1.55;1.02;;;;;;;-145.19;100.00;59999.88;5026563;28;20128;-58
2021/04/14 10:42:22;;;;;;;2.22;1.25;;;;;;;-145.19;100.00;59999.88;5032635;28;20052;-59
2021/04/14 10:44:49;;;;;;;2.30;1.20;;;;;;;-145.19;100.00;59999.88;5030034;28;20064;-58
2021/04/14 10:47:25;;;;;;;4.47;1.35;;;;;;;-145.19;100.00;59999.88;5027022;28;20493;-56
2021/04/14 10:49:51;;;;;;;2.15;1.40;;;;;;;-145.19;100.00;59999.88;5029475;28;20565;-66
2021/04/14 10:52:28;;;;;;;3.42;1.20;;;;;;;-145.19;100.00;59999.88;5027469;28;20392;-65
2021/04/14 10:54:59;;;;;;;2.63;1.23;;;;;;;-145.19;100.00;59999.88;5022574;28;20077;-65
2021/04/14 10:58:01;;;;;;;2.83;1.40;;;;;;;-145.19;100.00;59999.88;5027686;28;20091;-65
2021/04/14 11:00:31;;;;;;;2.53;1.10;;;;;;;-145.19;100.00;59999.88;5027784;28;20081;-67
2021/04/14 11:03:11;;;;;;;4.60;1.10;;;;;;;-145.19;100.00;59999.88;5029791;28;20103;-67
2021/04/14 11:05:40;;;;;;;2.88;1.33;;;;;;;-145.19;100.00;59999.88;5023993;28;20384;-67
2021/04/14 11:08:08;;;;;;;2.90;1.40;;;;;;;-145.19;100.00;59999.88;5026341;28;20572;-67
2021/04/14 11:10:37;;;;;;;3.05;1.90;;;;;;;-145.19;100.00;59999.88;5028881;28;20034;-67
2021/04/14 11:13:06;;;;;;;2.25;1.20;;;;;;;-145.19;100.00;59999.88;5026884;28;20049;-67
2021/04/14 11:15:41;;;;;;;1.58;1.10;;;;;;;-145.19;100.00;59999.88;5028711;28;20042;-69
2021/04/14 11:18:10;;;;;;;1.65;1.30;;;;;;;-145.19;100.00;59999.88;5032374;28;20041;-68
2021/04/14 11:20:44;;;;;;;3.33;1.05;;;;;;;-145.19;100.00;59999.88;5033526;28;20095;-70